sensor_id;sensor_type;location;lat;lon;timestamp;temperature;humidity
14985;DHT22;7588;62.368;25.902;2022-08-05T00:01:20;16.20;99.90
14985;DHT22;7588;62.368;25.902;2022-08-05T00:03:47;16.30;99.90
14985;DHT22;7588;62.368;25.902;2022-08-05T00:06:13;16.40;99.90
14985;DHT22;7588;62.368;25.902;2022-08-05T00:08:39;16.40;99.90
14985;DHT22;7588;62.368;25.902;2022-08-05T00:11:09;16.40;99.90
14985;DHT22;7588;62.368;25.902;2022-08-05T00:13:37;16.30;99.90
14985;DHT22;7588;62.368;25.902;2022-08-05T00:16:04;16.40;99.90
14985;DHT22;7588;62.368;25.902;2022-08-05T00:18:30;16.40;99.90
14985;DHT22;7588;62.368;25.902;2022-08-05T00:20:56;16.40;99.90
14985;DHT22;7588;62.368;25.902;2022-08-05T00:23:22;16.40;99.90
14985;DHT22;7588;62.368;25.902;2022-08-05T00:25:48;16.30;99.90
14985;DHT22;7588;62.368;25.902;2022-08-05T00:28:15;16.30;99.90
14985;DHT22;7588;62.368;25.902;2022-08-05T00:30:41;16.20;99.90
14985;DHT22;7588;62.368;25.902;2022-08-05T00:33:08;16.10;99.90
14985;DHT22;7588;62.368;25.902;2022-08-05T00:35:34;16.10;99.90
14985;DHT22;7588;62.368;25.902;2022-08-05T00:38:00;16.00;99.90
14985;DHT22;7588;62.368;25.902;2022-08-05T00:40:26;16.00;99.90
14985;DHT22;7588;62.368;25.902;2022-08-05T00:42:52;15.90;99.90
14985;DHT22;7588;62.368;25.902;2022-08-05T00:45:18;15.80;99.90
14985;DHT22;7588;62.368;25.902;2022-08-05T00:47:44;15.80;99.90
14985;DHT22;7588;62.368;25.902;2022-08-05T00:50:10;15.80;99.90
14985;DHT22;7588;62.368;25.902;2022-08-05T00:52:36;15.80;99.90
14985;DHT22;7588;62.368;25.902;2022-08-05T00:55:03;15.70;99.90
14985;DHT22;7588;62.368;25.902;2022-08-05T00:57:29;15.80;99.90
14985;DHT22;7588;62.368;25.902;2022-08-05T00:59:55;15.80;99.90
14985;DHT22;7588;62.368;25.902;2022-08-05T01:02:20;15.70;99.90
14985;DHT22;7588;62.368;25.902;2022-08-05T01:04:46;15.80;99.90
14985;DHT22;7588;62.368;25.902;2022-08-05T01:07:12;15.80;99.90
14985;DHT22;7588;62.368;25.902;2022-08-05T01:09:38;15.80;99.90
14985;DHT22;7588;62.368;25.902;2022-08-05T01:12:07;15.90;99.90
14985;DHT22;7588;62.368;25.902;2022-08-05T01:17:11;16.00;99.90
14985;DHT22;7588;62.368;25.902;2022-08-05T01:22:39;16.10;99.90
14985;DHT22;7588;62.368;25.902;2022-08-05T01:28:25;15.90;99.90
14985;DHT22;7588;62.368;25.902;2022-08-05T01:31:06;15.80;99.90
14985;DHT22;7588;62.368;25.902;2022-08-05T01:33:42;15.80;99.90
14985;DHT22;7588;62.368;25.902;2022-08-05T01:36:13;15.70;99.90
14985;DHT22;7588;62.368;25.902;2022-08-05T01:38:40;15.90;99.90
14985;DHT22;7588;62.368;25.902;2022-08-05T01:41:08;16.00;99.90
14985;DHT22;7588;62.368;25.902;2022-08-05T01:43:36;16.00;99.90
14985;DHT22;7588;62.368;25.902;2022-08-05T01:46:04;16.10;99.90
14985;DHT22;7588;62.368;25.902;2022-08-05T01:48:30;16.20;99.90
14985;DHT22;7588;62.368;25.902;2022-08-05T01:51:00;16.20;99.90
14985;DHT22;7588;62.368;25.902;2022-08-05T01:53:27;16.10;99.90
14985;DHT22;7588;62.368;25.902;2022-08-05T01:55:57;16.00;99.90
14985;DHT22;7588;62.368;25.902;2022-08-05T01:58:24;15.90;99.90
14985;DHT22;7588;62.368;25.902;2022-08-05T02:00:52;15.90;99.90
14985;DHT22;7588;62.368;25.902;2022-08-05T02:03:23;15.90;99.90
14985;DHT22;7588;62.368;25.902;2022-08-05T02:05:52;16.00;99.90
14985;DHT22;7588;62.368;25.902;2022-08-05T02:08:18;15.90;99.90
14985;DHT22;7588;62.368;25.902;2022-08-05T02:10:50;16.00;99.90
14985;DHT22;7588;62.368;25.902;2022-08-05T02:16:29;15.90;99.90
14985;DHT22;7588;62.368;25.902;2022-08-05T02:19:01;15.90;99.90
14985;DHT22;7588;62.368;25.902;2022-08-05T02:21:32;16.00;99.90
14985;DHT22;7588;62.368;25.902;2022-08-05T02:24:05;16.00;99.90
14985;DHT22;7588;62.368;25.902;2022-08-05T02:26:55;16.00;99.90
14985;DHT22;7588;62.368;25.902;2022-08-05T02:29:23;16.00;99.90
14985;DHT22;7588;62.368;25.902;2022-08-05T02:31:50;16.00;99.90
14985;DHT22;7588;62.368;25.902;2022-08-05T02:34:19;16.00;99.90
14985;DHT22;7588;62.368;25.902;2022-08-05T02:36:52;16.00;99.90
14985;DHT22;7588;62.368;25.902;2022-08-05T02:39:20;15.90;99.90
14985;DHT22;7588;62.368;25.902;2022-08-05T02:41:46;16.00;99.90
14985;DHT22;7588;62.368;25.902;2022-08-05T02:44:13;16.00;99.90
14985;DHT22;7588;62.368;25.902;2022-08-05T02:46:44;16.20;99.90
14985;DHT22;7588;62.368;25.902;2022-08-05T02:49:14;16.40;99.90
14985;DHT22;7588;62.368;25.902;2022-08-05T02:51:40;16.50;99.90
14985;DHT22;7588;62.368;25.902;2022-08-05T02:54:08;16.70;99.90
14985;DHT22;7588;62.368;25.902;2022-08-05T02:56:35;16.80;99.90
14985;DHT22;7588;62.368;25.902;2022-08-05T02:59:02;16.90;99.90
14985;DHT22;7588;62.368;25.902;2022-08-05T03:01:29;17.00;99.90
14985;DHT22;7588;62.368;25.902;2022-08-05T03:03:59;17.00;99.90
14985;DHT22;7588;62.368;25.902;2022-08-05T03:06:26;17.20;99.90
14985;DHT22;7588;62.368;25.902;2022-08-05T03:08:54;17.30;99.90
14985;DHT22;7588;62.368;25.902;2022-08-05T03:11:25;17.30;99.90
14985;DHT22;7588;62.368;25.902;2022-08-05T03:13:52;17.30;99.90
14985;DHT22;7588;62.368;25.902;2022-08-05T03:16:18;17.40;99.90
14985;DHT22;7588;62.368;25.902;2022-08-05T03:18:44;17.40;99.90
14985;DHT22;7588;62.368;25.902;2022-08-05T03:21:10;17.40;99.90
14985;DHT22;7588;62.368;25.902;2022-08-05T03:23:38;17.40;99.90
14985;DHT22;7588;62.368;25.902;2022-08-05T03:26:08;17.40;99.90
14985;DHT22;7588;62.368;25.902;2022-08-05T03:28:35;17.50;99.90
14985;DHT22;7588;62.368;25.902;2022-08-05T03:31:02;17.50;99.90
14985;DHT22;7588;62.368;25.902;2022-08-05T03:33:29;17.60;99.90
14985;DHT22;7588;62.368;25.902;2022-08-05T03:35:56;17.60;99.90
14985;DHT22;7588;62.368;25.902;2022-08-05T03:38:23;17.70;99.90
14985;DHT22;7588;62.368;25.902;2022-08-05T03:40:49;17.90;99.90
14985;DHT22;7588;62.368;25.902;2022-08-05T03:43:17;17.90;99.90
14985;DHT22;7588;62.368;25.902;2022-08-05T03:45:43;18.00;99.90
14985;DHT22;7588;62.368;25.902;2022-08-05T03:48:09;18.10;99.90
14985;DHT22;7588;62.368;25.902;2022-08-05T03:50:49;18.10;99.90
14985;DHT22;7588;62.368;25.902;2022-08-05T03:53:43;18.20;99.90
14985;DHT22;7588;62.368;25.902;2022-08-05T03:56:27;18.10;99.90
14985;DHT22;7588;62.368;25.902;2022-08-05T03:59:05;18.10;99.90
14985;DHT22;7588;62.368;25.902;2022-08-05T04:01:36;18.20;99.90
14985;DHT22;7588;62.368;25.902;2022-08-05T04:04:05;18.10;99.90
14985;DHT22;7588;62.368;25.902;2022-08-05T04:06:35;18.10;99.90
14985;DHT22;7588;62.368;25.902;2022-08-05T04:09:02;18.20;99.90
14985;DHT22;7588;62.368;25.902;2022-08-05T04:11:30;18.30;99.90
14985;DHT22;7588;62.368;25.902;2022-08-05T04:13:58;18.40;99.90
14985;DHT22;7588;62.368;25.902;2022-08-05T04:16:24;18.60;99.90
14985;DHT22;7588;62.368;25.902;2022-08-05T04:18:50;18.70;99.90
14985;DHT22;7588;62.368;25.902;2022-08-05T04:21:16;18.80;99.90
14985;DHT22;7588;62.368;25.902;2022-08-05T04:23:42;18.80;99.90
14985;DHT22;7588;62.368;25.902;2022-08-05T04:26:08;19.00;99.90
14985;DHT22;7588;62.368;25.902;2022-08-05T04:28:34;19.20;99.90
14985;DHT22;7588;62.368;25.902;2022-08-05T04:31:00;19.30;99.90
14985;DHT22;7588;62.368;25.902;2022-08-05T04:33:26;19.50;99.90
14985;DHT22;7588;62.368;25.902;2022-08-05T04:35:52;19.60;99.90
14985;DHT22;7588;62.368;25.902;2022-08-05T04:38:17;19.90;99.90
14985;DHT22;7588;62.368;25.902;2022-08-05T04:40:43;20.70;99.90
14985;DHT22;7588;62.368;25.902;2022-08-05T04:43:09;21.60;99.90
14985;DHT22;7588;62.368;25.902;2022-08-05T04:45:35;22.40;99.90
14985;DHT22;7588;62.368;25.902;2022-08-05T04:48:09;23.20;99.90
14985;DHT22;7588;62.368;25.902;2022-08-05T04:50:43;23.60;99.90
14985;DHT22;7588;62.368;25.902;2022-08-05T04:53:10;24.00;99.90
14985;DHT22;7588;62.368;25.902;2022-08-05T04:55:37;24.30;99.90
14985;DHT22;7588;62.368;25.902;2022-08-05T04:58:07;24.70;99.90
14985;DHT22;7588;62.368;25.902;2022-08-05T05:00:34;24.80;99.90
14985;DHT22;7588;62.368;25.902;2022-08-05T05:03:01;24.90;99.90
14985;DHT22;7588;62.368;25.902;2022-08-05T05:05:27;25.40;99.90
14985;DHT22;7588;62.368;25.902;2022-08-05T05:07:54;25.20;99.90
14985;DHT22;7588;62.368;25.902;2022-08-05T05:10:21;25.40;99.90
14985;DHT22;7588;62.368;25.902;2022-08-05T05:12:46;25.60;99.90
14985;DHT22;7588;62.368;25.902;2022-08-05T05:15:12;25.80;99.90
14985;DHT22;7588;62.368;25.902;2022-08-05T05:17:39;25.80;99.90
14985;DHT22;7588;62.368;25.902;2022-08-05T05:20:07;25.80;99.90
14985;DHT22;7588;62.368;25.902;2022-08-05T05:22:33;26.10;99.90
14985;DHT22;7588;62.368;25.902;2022-08-05T05:24:59;25.60;99.90
14985;DHT22;7588;62.368;25.902;2022-08-05T05:27:33;25.00;99.90
14985;DHT22;7588;62.368;25.902;2022-08-05T05:29:59;25.20;99.90
14985;DHT22;7588;62.368;25.902;2022-08-05T05:32:25;25.80;99.90
14985;DHT22;7588;62.368;25.902;2022-08-05T05:34:50;26.10;99.90
14985;DHT22;7588;62.368;25.902;2022-08-05T05:37:16;26.10;99.90
14985;DHT22;7588;62.368;25.902;2022-08-05T05:39:42;25.90;99.90
14985;DHT22;7588;62.368;25.902;2022-08-05T05:42:08;26.00;99.90
14985;DHT22;7588;62.368;25.902;2022-08-05T05:44:34;26.40;99.10
14985;DHT22;7588;62.368;25.902;2022-08-05T05:47:00;26.80;99.30
14985;DHT22;7588;62.368;25.902;2022-08-05T05:49:26;26.80;99.00
14985;DHT22;7588;62.368;25.902;2022-08-05T05:51:53;27.00;98.00
14985;DHT22;7588;62.368;25.902;2022-08-05T05:54:19;27.20;98.20
14985;DHT22;7588;62.368;25.902;2022-08-05T05:56:45;27.50;97.00
14985;DHT22;7588;62.368;25.902;2022-08-05T05:59:11;27.40;96.30
14985;DHT22;7588;62.368;25.902;2022-08-05T06:01:40;27.40;96.90
14985;DHT22;7588;62.368;25.902;2022-08-05T06:04:11;27.60;97.50
14985;DHT22;7588;62.368;25.902;2022-08-05T06:06:37;27.50;96.60
14985;DHT22;7588;62.368;25.902;2022-08-05T06:09:04;27.70;96.60
14985;DHT22;7588;62.368;25.902;2022-08-05T06:11:31;27.30;96.30
14985;DHT22;7588;62.368;25.902;2022-08-05T06:13:57;27.10;96.50
14985;DHT22;7588;62.368;25.902;2022-08-05T06:16:23;27.10;97.00
14985;DHT22;7588;62.368;25.902;2022-08-05T06:18:49;26.60;98.40
14985;DHT22;7588;62.368;25.902;2022-08-05T06:21:16;26.00;98.50
14985;DHT22;7588;62.368;25.902;2022-08-05T06:23:42;25.60;99.00
14985;DHT22;7588;62.368;25.902;2022-08-05T06:26:08;25.40;99.90
14985;DHT22;7588;62.368;25.902;2022-08-05T06:28:34;25.10;99.60
14985;DHT22;7588;62.368;25.902;2022-08-05T06:31:01;24.80;99.90
14985;DHT22;7588;62.368;25.902;2022-08-05T06:33:27;24.80;99.90
14985;DHT22;7588;62.368;25.902;2022-08-05T06:35:53;24.70;99.90
14985;DHT22;7588;62.368;25.902;2022-08-05T06:38:18;24.60;99.90
14985;DHT22;7588;62.368;25.902;2022-08-05T06:40:44;24.60;99.90
14985;DHT22;7588;62.368;25.902;2022-08-05T06:43:11;25.30;99.90
14985;DHT22;7588;62.368;25.902;2022-08-05T06:45:36;26.10;99.90
14985;DHT22;7588;62.368;25.902;2022-08-05T06:48:02;26.80;99.10
14985;DHT22;7588;62.368;25.902;2022-08-05T06:50:28;27.30;96.80
14985;DHT22;7588;62.368;25.902;2022-08-05T06:52:54;27.70;95.40
14985;DHT22;7588;62.368;25.902;2022-08-05T06:55:20;28.10;94.70
14985;DHT22;7588;62.368;25.902;2022-08-05T06:57:46;28.50;93.90
14985;DHT22;7588;62.368;25.902;2022-08-05T07:00:11;28.80;95.20
14985;DHT22;7588;62.368;25.902;2022-08-05T07:02:45;29.00;92.30
14985;DHT22;7588;62.368;25.902;2022-08-05T07:05:11;29.10;91.50
14985;DHT22;7588;62.368;25.902;2022-08-05T07:07:38;28.90;91.00
14985;DHT22;7588;62.368;25.902;2022-08-05T07:10:05;28.90;93.40
14985;DHT22;7588;62.368;25.902;2022-08-05T07:12:31;28.80;92.30
14985;DHT22;7588;62.368;25.902;2022-08-05T07:15:15;28.60;92.70
14985;DHT22;7588;62.368;25.902;2022-08-05T07:17:59;28.50;92.00
14985;DHT22;7588;62.368;25.902;2022-08-05T07:20:25;28.50;90.90
14985;DHT22;7588;62.368;25.902;2022-08-05T07:22:51;28.60;92.10
14985;DHT22;7588;62.368;25.902;2022-08-05T07:25:17;28.80;91.70
14985;DHT22;7588;62.368;25.902;2022-08-05T07:27:42;29.10;90.10
14985;DHT22;7588;62.368;25.902;2022-08-05T07:30:08;29.10;90.20
14985;DHT22;7588;62.368;25.902;2022-08-05T07:32:35;29.00;90.00
14985;DHT22;7588;62.368;25.902;2022-08-05T07:35:06;29.20;91.70
14985;DHT22;7588;62.368;25.902;2022-08-05T07:37:32;29.60;88.90
14985;DHT22;7588;62.368;25.902;2022-08-05T07:39:57;29.80;87.70
14985;DHT22;7588;62.368;25.902;2022-08-05T07:42:23;29.70;87.00
14985;DHT22;7588;62.368;25.902;2022-08-05T07:44:49;29.20;91.60
14985;DHT22;7588;62.368;25.902;2022-08-05T07:47:14;28.90;91.50
14985;DHT22;7588;62.368;25.902;2022-08-05T07:49:40;28.90;88.90
14985;DHT22;7588;62.368;25.902;2022-08-05T07:52:06;29.00;88.30
14985;DHT22;7588;62.368;25.902;2022-08-05T07:54:32;29.10;88.80
14985;DHT22;7588;62.368;25.902;2022-08-05T07:56:57;29.10;91.60
14985;DHT22;7588;62.368;25.902;2022-08-05T07:59:23;29.00;86.50
14985;DHT22;7588;62.368;25.902;2022-08-05T08:01:49;28.90;90.80
14985;DHT22;7588;62.368;25.902;2022-08-05T08:04:15;28.90;89.90
14985;DHT22;7588;62.368;25.902;2022-08-05T08:06:41;28.90;89.50
14985;DHT22;7588;62.368;25.902;2022-08-05T08:09:06;28.70;90.70
14985;DHT22;7588;62.368;25.902;2022-08-05T08:11:32;28.50;90.30
14985;DHT22;7588;62.368;25.902;2022-08-05T08:13:58;28.50;89.30
14985;DHT22;7588;62.368;25.902;2022-08-05T08:16:23;28.30;91.30
14985;DHT22;7588;62.368;25.902;2022-08-05T08:18:49;28.30;89.60
14985;DHT22;7588;62.368;25.902;2022-08-05T08:21:15;28.50;92.50
14985;DHT22;7588;62.368;25.902;2022-08-05T08:23:41;28.90;90.10
14985;DHT22;7588;62.368;25.902;2022-08-05T08:26:06;29.20;87.70
14985;DHT22;7588;62.368;25.902;2022-08-05T08:28:32;29.40;85.00
14985;DHT22;7588;62.368;25.902;2022-08-05T08:30:58;29.20;86.50
14985;DHT22;7588;62.368;25.902;2022-08-05T08:33:24;29.20;86.00
14985;DHT22;7588;62.368;25.902;2022-08-05T08:35:50;29.30;87.70
14985;DHT22;7588;62.368;25.902;2022-08-05T08:38:15;29.50;88.60
14985;DHT22;7588;62.368;25.902;2022-08-05T08:40:42;29.40;84.60
14985;DHT22;7588;62.368;25.902;2022-08-05T08:43:11;29.30;83.40
14985;DHT22;7588;62.368;25.902;2022-08-05T08:45:37;29.40;87.00
14985;DHT22;7588;62.368;25.902;2022-08-05T08:48:05;29.40;84.30
14985;DHT22;7588;62.368;25.902;2022-08-05T08:50:31;29.60;86.00
14985;DHT22;7588;62.368;25.902;2022-08-05T08:53:03;29.80;85.00
14985;DHT22;7588;62.368;25.902;2022-08-05T08:55:30;29.90;83.00
14985;DHT22;7588;62.368;25.902;2022-08-05T08:58:00;29.90;78.30
14985;DHT22;7588;62.368;25.902;2022-08-05T09:00:27;29.90;82.50
14985;DHT22;7588;62.368;25.902;2022-08-05T09:02:53;29.80;82.00
14985;DHT22;7588;62.368;25.902;2022-08-05T09:05:19;29.90;80.70
14985;DHT22;7588;62.368;25.902;2022-08-05T09:07:46;30.10;81.70
14985;DHT22;7588;62.368;25.902;2022-08-05T09:10:12;30.00;78.30
14985;DHT22;7588;62.368;25.902;2022-08-05T09:12:38;29.50;79.90
14985;DHT22;7588;62.368;25.902;2022-08-05T09:15:05;28.90;82.40
14985;DHT22;7588;62.368;25.902;2022-08-05T09:17:31;28.80;85.60
14985;DHT22;7588;62.368;25.902;2022-08-05T09:19:58;28.70;85.10
14985;DHT22;7588;62.368;25.902;2022-08-05T09:22:24;28.90;82.90
14985;DHT22;7588;62.368;25.902;2022-08-05T09:24:58;29.20;80.80
14985;DHT22;7588;62.368;25.902;2022-08-05T09:27:35;29.40;82.10
14985;DHT22;7588;62.368;25.902;2022-08-05T09:30:02;29.70;82.20
14985;DHT22;7588;62.368;25.902;2022-08-05T09:32:38;29.80;79.20
14985;DHT22;7588;62.368;25.902;2022-08-05T09:35:12;30.20;79.70
14985;DHT22;7588;62.368;25.902;2022-08-05T09:37:51;30.50;80.10
14985;DHT22;7588;62.368;25.902;2022-08-05T09:40:39;30.60;75.50
14985;DHT22;7588;62.368;25.902;2022-08-05T09:43:34;30.80;76.60
14985;DHT22;7588;62.368;25.902;2022-08-05T09:46:00;30.80;78.30
14985;DHT22;7588;62.368;25.902;2022-08-05T09:48:32;31.00;76.60
14985;DHT22;7588;62.368;25.902;2022-08-05T09:51:06;31.30;80.70
14985;DHT22;7588;62.368;25.902;2022-08-05T09:53:52;31.70;77.30
14985;DHT22;7588;62.368;25.902;2022-08-05T09:56:29;32.20;79.70
14985;DHT22;7588;62.368;25.902;2022-08-05T09:59:00;32.20;76.00
14985;DHT22;7588;62.368;25.902;2022-08-05T10:01:27;32.40;73.00
14985;DHT22;7588;62.368;25.902;2022-08-05T10:03:56;32.60;76.20
14985;DHT22;7588;62.368;25.902;2022-08-05T10:06:25;32.70;76.10
14985;DHT22;7588;62.368;25.902;2022-08-05T10:08:52;32.50;73.60
14985;DHT22;7588;62.368;25.902;2022-08-05T10:11:18;31.80;77.60
14985;DHT22;7588;62.368;25.902;2022-08-05T10:13:44;31.30;78.60
14985;DHT22;7588;62.368;25.902;2022-08-05T10:18:55;30.70;84.00
14985;DHT22;7588;62.368;25.902;2022-08-05T10:21:20;30.70;80.00
14985;DHT22;7588;62.368;25.902;2022-08-05T10:23:46;30.90;82.30
14985;DHT22;7588;62.368;25.902;2022-08-05T10:26:12;30.80;81.00
14985;DHT22;7588;62.368;25.902;2022-08-05T10:28:38;30.50;81.20
14985;DHT22;7588;62.368;25.902;2022-08-05T10:31:05;30.20;80.20
14985;DHT22;7588;62.368;25.902;2022-08-05T10:33:32;29.90;79.20
14985;DHT22;7588;62.368;25.902;2022-08-05T10:36:00;29.60;80.30
14985;DHT22;7588;62.368;25.902;2022-08-05T10:38:28;29.60;79.60
14985;DHT22;7588;62.368;25.902;2022-08-05T10:41:16;29.40;79.30
14985;DHT22;7588;62.368;25.902;2022-08-05T10:44:02;29.20;82.70
14985;DHT22;7588;62.368;25.902;2022-08-05T10:46:52;29.60;81.60
14985;DHT22;7588;62.368;25.902;2022-08-05T10:49:19;30.20;79.50
14985;DHT22;7588;62.368;25.902;2022-08-05T10:51:48;30.90;80.00
14985;DHT22;7588;62.368;25.902;2022-08-05T10:54:14;31.60;79.30
14985;DHT22;7588;62.368;25.902;2022-08-05T10:56:51;32.30;76.10
14985;DHT22;7588;62.368;25.902;2022-08-05T10:59:28;32.70;77.60
14985;DHT22;7588;62.368;25.902;2022-08-05T11:02:11;32.80;74.30
14985;DHT22;7588;62.368;25.902;2022-08-05T11:04:46;32.80;74.00
14985;DHT22;7588;62.368;25.902;2022-08-05T11:07:13;32.60;77.50
14985;DHT22;7588;62.368;25.902;2022-08-05T11:09:49;32.70;74.60
14985;DHT22;7588;62.368;25.902;2022-08-05T11:15:26;32.20;73.90
14985;DHT22;7588;62.368;25.902;2022-08-05T11:20:42;31.20;79.60
14985;DHT22;7588;62.368;25.902;2022-08-05T11:23:28;30.90;77.80
14985;DHT22;7588;62.368;25.902;2022-08-05T11:26:07;30.50;78.60
14985;DHT22;7588;62.368;25.902;2022-08-05T11:33:27;29.40;80.90
14985;DHT22;7588;62.368;25.902;2022-08-05T11:36:01;29.60;80.40
14985;DHT22;7588;62.368;25.902;2022-08-05T11:44:04;30.50;80.70
14985;DHT22;7588;62.368;25.902;2022-08-05T11:46:52;30.80;79.30
14985;DHT22;7588;62.368;25.902;2022-08-05T11:49:20;31.40;76.50
14985;DHT22;7588;62.368;25.902;2022-08-05T11:51:48;31.90;74.40
14985;DHT22;7588;62.368;25.902;2022-08-05T11:54:25;31.90;73.70
14985;DHT22;7588;62.368;25.902;2022-08-05T11:56:53;32.20;76.20
14985;DHT22;7588;62.368;25.902;2022-08-05T11:59:25;32.60;73.40
14985;DHT22;7588;62.368;25.902;2022-08-05T12:07:09;32.90;72.30
14985;DHT22;7588;62.368;25.902;2022-08-05T12:09:38;32.70;74.80
14985;DHT22;7588;62.368;25.902;2022-08-05T12:12:05;32.30;73.70
14985;DHT22;7588;62.368;25.902;2022-08-05T12:14:42;31.80;72.90
14985;DHT22;7588;62.368;25.902;2022-08-05T12:17:10;32.00;75.40
14985;DHT22;7588;62.368;25.902;2022-08-05T12:19:53;32.40;74.80
14985;DHT22;7588;62.368;25.902;2022-08-05T12:22:21;33.00;76.00
14985;DHT22;7588;62.368;25.902;2022-08-05T12:24:49;33.30;70.30
14985;DHT22;7588;62.368;25.902;2022-08-05T12:27:23;33.50;70.40
14985;DHT22;7588;62.368;25.902;2022-08-05T12:29:59;33.70;72.80
14985;DHT22;7588;62.368;25.902;2022-08-05T12:32:25;33.90;70.30
14985;DHT22;7588;62.368;25.902;2022-08-05T12:34:51;34.20;69.10
14985;DHT22;7588;62.368;25.902;2022-08-05T12:37:17;34.00;69.70
14985;DHT22;7588;62.368;25.902;2022-08-05T12:39:43;33.70;66.80
14985;DHT22;7588;62.368;25.902;2022-08-05T12:42:11;32.90;67.30
14985;DHT22;7588;62.368;25.902;2022-08-05T12:44:38;32.30;71.10
14985;DHT22;7588;62.368;25.902;2022-08-05T12:47:05;31.90;73.80
14985;DHT22;7588;62.368;25.902;2022-08-05T12:49:42;31.50;73.40
14985;DHT22;7588;62.368;25.902;2022-08-05T12:52:16;31.00;71.80
14985;DHT22;7588;62.368;25.902;2022-08-05T12:54:44;30.60;74.60
14985;DHT22;7588;62.368;25.902;2022-08-05T12:57:11;30.60;74.70
14985;DHT22;7588;62.368;25.902;2022-08-05T12:59:45;30.80;75.20
14985;DHT22;7588;62.368;25.902;2022-08-05T13:02:12;30.90;77.40
14985;DHT22;7588;62.368;25.902;2022-08-05T13:04:41;30.80;73.20
14985;DHT22;7588;62.368;25.902;2022-08-05T13:07:09;30.40;72.60
14985;DHT22;7588;62.368;25.902;2022-08-05T13:09:37;30.10;74.20
14985;DHT22;7588;62.368;25.902;2022-08-05T13:12:09;30.00;77.60
14985;DHT22;7588;62.368;25.902;2022-08-05T13:14:37;29.70;76.60
14985;DHT22;7588;62.368;25.902;2022-08-05T13:17:29;29.50;75.10
14985;DHT22;7588;62.368;25.902;2022-08-05T13:20:10;29.30;79.10
14985;DHT22;7588;62.368;25.902;2022-08-05T13:22:47;29.20;79.80
14985;DHT22;7588;62.368;25.902;2022-08-05T13:25:14;28.90;80.80
14985;DHT22;7588;62.368;25.902;2022-08-05T13:27:49;28.70;80.10
14985;DHT22;7588;62.368;25.902;2022-08-05T13:30:16;28.50;79.10
14985;DHT22;7588;62.368;25.902;2022-08-05T13:32:42;28.30;80.40
14985;DHT22;7588;62.368;25.902;2022-08-05T13:35:16;28.10;79.50
14985;DHT22;7588;62.368;25.902;2022-08-05T13:37:43;28.00;81.30
14985;DHT22;7588;62.368;25.902;2022-08-05T13:40:10;27.80;79.90
14985;DHT22;7588;62.368;25.902;2022-08-05T13:42:36;27.70;82.40
14985;DHT22;7588;62.368;25.902;2022-08-05T13:45:03;27.60;83.00
14985;DHT22;7588;62.368;25.902;2022-08-05T13:47:31;27.50;82.20
14985;DHT22;7588;62.368;25.902;2022-08-05T13:49:59;27.40;86.30
14985;DHT22;7588;62.368;25.902;2022-08-05T13:52:25;27.30;83.50
14985;DHT22;7588;62.368;25.902;2022-08-05T13:54:52;27.20;84.10
14985;DHT22;7588;62.368;25.902;2022-08-05T13:57:18;27.10;85.50
14985;DHT22;7588;62.368;25.902;2022-08-05T13:59:44;27.00;85.90
14985;DHT22;7588;62.368;25.902;2022-08-05T14:02:12;27.00;83.70
14985;DHT22;7588;62.368;25.902;2022-08-05T14:04:40;27.00;84.50
14985;DHT22;7588;62.368;25.902;2022-08-05T14:09:52;27.00;87.20
14985;DHT22;7588;62.368;25.902;2022-08-05T14:12:18;27.00;85.20
14985;DHT22;7588;62.368;25.902;2022-08-05T14:14:44;27.10;86.10
14985;DHT22;7588;62.368;25.902;2022-08-05T14:17:10;27.20;86.60
14985;DHT22;7588;62.368;25.902;2022-08-05T14:19:36;27.10;85.60
14985;DHT22;7588;62.368;25.902;2022-08-05T14:22:01;27.20;84.10
14985;DHT22;7588;62.368;25.902;2022-08-05T14:24:28;27.20;83.70
14985;DHT22;7588;62.368;25.902;2022-08-05T14:26:54;27.20;83.70
14985;DHT22;7588;62.368;25.902;2022-08-05T14:29:19;27.10;82.80
14985;DHT22;7588;62.368;25.902;2022-08-05T14:31:45;27.10;83.40
14985;DHT22;7588;62.368;25.902;2022-08-05T14:34:11;27.10;84.40
14985;DHT22;7588;62.368;25.902;2022-08-05T14:36:37;27.10;86.70
14985;DHT22;7588;62.368;25.902;2022-08-05T14:39:04;27.00;85.60
14985;DHT22;7588;62.368;25.902;2022-08-05T14:41:33;27.10;84.70
14985;DHT22;7588;62.368;25.902;2022-08-05T14:43:59;27.10;86.50
14985;DHT22;7588;62.368;25.902;2022-08-05T14:46:26;27.00;85.30
14985;DHT22;7588;62.368;25.902;2022-08-05T14:48:52;27.10;85.60
14985;DHT22;7588;62.368;25.902;2022-08-05T14:51:18;27.10;84.80
14985;DHT22;7588;62.368;25.902;2022-08-05T14:53:44;27.10;85.50
14985;DHT22;7588;62.368;25.902;2022-08-05T14:56:10;27.10;88.20
14985;DHT22;7588;62.368;25.902;2022-08-05T14:58:36;27.00;88.40
14985;DHT22;7588;62.368;25.902;2022-08-05T15:01:02;26.90;85.20
14985;DHT22;7588;62.368;25.902;2022-08-05T15:03:28;26.70;86.90
14985;DHT22;7588;62.368;25.902;2022-08-05T15:05:54;26.60;90.40
14985;DHT22;7588;62.368;25.902;2022-08-05T15:08:20;26.60;86.70
14985;DHT22;7588;62.368;25.902;2022-08-05T15:10:46;26.60;86.90
14985;DHT22;7588;62.368;25.902;2022-08-05T15:13:12;26.50;84.90
14985;DHT22;7588;62.368;25.902;2022-08-05T15:15:38;26.50;86.20
14985;DHT22;7588;62.368;25.902;2022-08-05T15:18:04;26.60;85.60
14985;DHT22;7588;62.368;25.902;2022-08-05T15:20:30;26.50;84.20
14985;DHT22;7588;62.368;25.902;2022-08-05T15:22:56;26.50;84.80
14985;DHT22;7588;62.368;25.902;2022-08-05T15:25:26;26.40;84.80
14985;DHT22;7588;62.368;25.902;2022-08-05T15:27:52;26.40;84.90
14985;DHT22;7588;62.368;25.902;2022-08-05T15:30:18;26.30;85.40
14985;DHT22;7588;62.368;25.902;2022-08-05T15:32:44;26.20;85.30
14985;DHT22;7588;62.368;25.902;2022-08-05T15:35:10;26.20;85.30
14985;DHT22;7588;62.368;25.902;2022-08-05T15:37:35;26.10;85.70
14985;DHT22;7588;62.368;25.902;2022-08-05T15:40:02;26.00;85.70
14985;DHT22;7588;62.368;25.902;2022-08-05T15:42:27;26.00;88.30
14985;DHT22;7588;62.368;25.902;2022-08-05T15:44:53;25.90;87.30
14985;DHT22;7588;62.368;25.902;2022-08-05T15:47:20;25.90;88.40
14985;DHT22;7588;62.368;25.902;2022-08-05T15:49:50;25.90;87.40
14985;DHT22;7588;62.368;25.902;2022-08-05T15:52:17;25.90;86.20
14985;DHT22;7588;62.368;25.902;2022-08-05T15:54:44;25.90;86.90
14985;DHT22;7588;62.368;25.902;2022-08-05T15:57:11;26.00;87.50
14985;DHT22;7588;62.368;25.902;2022-08-05T15:59:37;26.00;85.70
14985;DHT22;7588;62.368;25.902;2022-08-05T16:02:03;26.00;85.20
14985;DHT22;7588;62.368;25.902;2022-08-05T16:04:28;26.00;87.40
14985;DHT22;7588;62.368;25.902;2022-08-05T16:06:54;26.00;86.10
14985;DHT22;7588;62.368;25.902;2022-08-05T16:09:20;26.00;86.80
14985;DHT22;7588;62.368;25.902;2022-08-05T16:11:46;26.00;87.20
14985;DHT22;7588;62.368;25.902;2022-08-05T16:14:12;25.80;87.50
14985;DHT22;7588;62.368;25.902;2022-08-05T16:16:38;25.70;87.70